Palembang
Home > Kaskuser Regional > INDONESIA > SUMATERA > Palembang > ▓▓▒▒ Radar Cuaca Palembang dan Sekitarnya ▒▒▓▓
Total Views: 14903 Share : Facebook ShareFacebook Twitter ShareTwitter Google+ ShareGoogle+
Page 10 of 64 | ‹ First  < 5 6 7 8 9 10 11 12 13 14 15 >  Last ›

dianabazz - 04/07/2011 01:36 PM
#181

▓▓▒▒ Radar Cuaca Palembang dan Sekitarnya ▒▒▓▓
dianabazz - 05/07/2011 08:07 AM
#182

▓▓▒▒ Radar Cuaca Palembang dan Sekitarnya ▒▒▓▓
dianabazz - 05/07/2011 08:09 AM
#183

[quote=Peringatan Dini]
▓▓▒▒ Radar Cuaca Palembang dan Sekitarnya ▒▒▓▓
[/quote]
dianabazz - 05/07/2011 08:11 AM
#184

T A F O R

FTID32 WIPP 042340
TAF WIPP 042330Z 0500/0524 16008KT 99999 SCT017 TEMPO 0500/0502 00000KT 1000 FG FEW015 TEMPO 0509/0513 20010KT 6000 -RA FEW020CB SCT016 BECMG 0518/0520 13006KT 4000 HZ FEW015=


Bingung cara bacanya???bingungs
klik aja Cara membaca TAFOR
dianabazz - 06/07/2011 06:51 PM
#185
6 Juli 2011
Prakiraan 6 Juli 2011

▓▓▒▒ Radar Cuaca Palembang dan Sekitarnya ▒▒▓▓
dianabazz - 06/07/2011 06:52 PM
#186
7 Juli 2011
Prakiraan 7 Juli 2011

▓▓▒▒ Radar Cuaca Palembang dan Sekitarnya ▒▒▓▓
dianabazz - 06/07/2011 06:56 PM
#187

T A F O R

FTID32 WIPP 060400
TAF WIPP 060400Z 0606/0706 11008KT 9999 SCT017 TEMPO 0608/0613 20005G16KT 7000 -RA FEW020CB SCT016 TEMPO 0621/0701 00000KT 3000 BR FEW015=


Bingung cara bacanya???bingungs
klik aja Cara membaca TAFOR
dianabazz - 08/07/2011 09:23 PM
#188
Prakiraan cuaca 8 Juli 2011
▓▓▒▒ Radar Cuaca Palembang dan Sekitarnya ▒▒▓▓
dianabazz - 08/07/2011 09:26 PM
#189
Prakiraan cuaca 9 Juli 2011
▓▓▒▒ Radar Cuaca Palembang dan Sekitarnya ▒▒▓▓
dianabazz - 09/07/2011 02:43 PM
#190

▓▓▒▒ Radar Cuaca Palembang dan Sekitarnya ▒▒▓▓
dianabazz - 09/07/2011 02:44 PM
#191

[quote=Peringatan Dini]
▓▓▒▒ Radar Cuaca Palembang dan Sekitarnya ▒▒▓▓
[/quote]
dianabazz - 09/07/2011 02:45 PM
#192

T A F O R

FTID32 WIPP 090400
TAF WIPP 090400Z 0906/1006 13008KT 9999 SCT017 TEMPO 0921/1001 00000KT 4000 HZ FEW015=


Bingung cara bacanya???bingungs
klik aja Cara membaca TAFOR
dianabazz - 09/07/2011 06:03 PM
#193

citra satelit 9 Juli 2011 pukul 08.00 UTC atau 15.00 WIB
▓▓▒▒ Radar Cuaca Palembang dan Sekitarnya ▒▒▓▓
dianabazz - 09/07/2011 06:04 PM
#194

update sebelum balek

mano oooo..... alangke sepi trit aq ni \(
men katek yg perlu lagi nak ditutup lah
dianabazz - 10/07/2011 08:41 AM
#195

T A F O R

FTID32 WIPP 092321
TAF WIPP 092300Z 1000/1024 00000KT 5000 HZ SCT012 BECMG 1001/1003 14008KT 9999 SCT015 TEMPO 1008/1012 09012KT 7000 -RA FEW020CB SCT016 TEMPO 1020/1024 00000KT 3000 HZ SCT012=


Bingung cara bacanya???bingungs
klik aja Cara membaca TAFOR
dianabazz - 10/07/2011 08:46 AM
#196

citra satelit 9 Juli 2011 pukul 23.00 UTC atau 10 Juli 2011 pukul 06.00 WIB
▓▓▒▒ Radar Cuaca Palembang dan Sekitarnya ▒▒▓▓
sumsum13 - 10/07/2011 10:16 AM
#197

:addfriends:addfriends:addfriends:addfriends:addfriends:addfriends:addfriends:addfriends:addfriends:a ddfriends
:addfriends:addfriends:addfriends:addfriends:addfriends:addfriends:addfriends:addfriends:addfriends:a ddfriends
cendolscendolscendolscendolscendolscendolscendolscendolscendolscendolscendolscendolscendols
bolela mang threadnyo :2thumbup
dianabazz - 10/07/2011 12:16 PM
#198
Prakiraan Cuaca 11 Juli 2011
▓▓▒▒ Radar Cuaca Palembang dan Sekitarnya ▒▒▓▓
dianabazz - 10/07/2011 12:17 PM
#199

update sebelum balek
dianabazz - 10/07/2011 12:18 PM
#200

Quote:
Original Posted By sumsum13
:addfriends:addfriends:addfriends:addfriends:addfriends:addfriends:addfriends:addfriends:addfriends:a ddfriends
:addfriends:addfriends:addfriends:addfriends:addfriends:addfriends:addfriends:addfriends:addfriends:a ddfriends
cendolscendolscendolscendolscendolscendolscendolscendolscendolscendolscendolscendolscendols
bolela mang threadnyo :2thumbup

mokasih mang
Page 10 of 64 | ‹ First  < 5 6 7 8 9 10 11 12 13 14 15 >  Last ›
Home > Kaskuser Regional > INDONESIA > SUMATERA > Palembang > ▓▓▒▒ Radar Cuaca Palembang dan Sekitarnya ▒▒▓▓